createdAt,value
2016-06-15T00:00:08.362Z,995.08
2016-06-15T00:01:08.382Z,995.05
2016-06-15T00:02:08.400Z,995.05
2016-06-15T00:03:08.434Z,995.04
2016-06-15T00:04:08.453Z,994.99
2016-06-15T00:05:08.487Z,994.99
2016-06-15T00:06:08.506Z,995
2016-06-15T00:07:08.540Z,995
2016-06-15T00:08:08.559Z,994.99
2016-06-15T00:09:08.577Z,994.97
2016-06-15T00:10:08.597Z,995.01
2016-06-15T00:11:08.630Z,995
2016-06-15T00:13:08.668Z,994.98
2016-06-15T00:14:08.703Z,995
2016-06-15T00:15:08.721Z,995.03
2016-06-15T00:16:08.756Z,994.97
2016-06-15T00:17:08.774Z,995.01
2016-06-15T00:18:08.793Z,994.98
2016-06-15T00:19:08.812Z,994.99
2016-06-15T00:20:08.846Z,994.95
2016-06-15T00:21:08.865Z,994.99
2016-06-15T00:22:08.899Z,994.98
2016-06-15T00:23:08.918Z,994.97
2016-06-15T00:24:08.936Z,994.96
2016-06-15T00:25:08.971Z,994.97
2016-06-15T00:26:08.989Z,994.96
2016-06-15T00:28:09.042Z,994.93
2016-06-15T00:29:09.061Z,994.96
2016-06-15T00:30:09.079Z,994.99
2016-06-15T00:31:09.114Z,994.93
2016-06-15T00:32:09.133Z,994.91
2016-06-15T00:33:09.151Z,994.94
2016-06-15T00:34:09.186Z,994.88
2016-06-15T00:35:09.204Z,994.93
2016-06-15T00:36:09.240Z,994.91
2016-06-15T00:37:09.257Z,994.93
2016-06-15T00:38:09.276Z,994.93
2016-06-15T00:39:09.311Z,994.88
2016-06-15T00:40:09.330Z,994.89
2016-06-15T00:41:09.347Z,994.92
2016-06-15T00:42:09.383Z,994.88
2016-06-15T00:43:09.401Z,994.93
2016-06-15T00:44:09.435Z,995
2016-06-15T00:45:09.454Z,994.96
2016-06-15T00:46:09.473Z,994.97
2016-06-15T00:47:09.491Z,994.97
2016-06-15T00:48:09.526Z,994.99
2016-06-15T00:49:09.544Z,994.9
2016-06-15T00:50:09.563Z,994.93
2016-06-15T00:51:09.598Z,994.94
2016-06-15T00:52:09.616Z,994.91
2016-06-15T00:53:09.635Z,994.94
2016-06-15T00:54:09.670Z,994.93
2016-06-15T00:55:09.688Z,994.92
2016-06-15T00:56:09.707Z,994.91
2016-06-15T00:57:09.741Z,994.91
2016-06-15T00:58:09.791Z,994.92
2016-06-15T01:00:09.917Z,994.92
2016-06-15T01:01:09.971Z,994.9
2016-06-15T01:02:10.026Z,994.87
2016-06-15T01:03:10.078Z,994.85
2016-06-15T01:04:10.110Z,994.89
2016-06-15T01:05:10.485Z,994.9
2016-06-15T01:06:10.189Z,994.85
2016-06-15T01:07:10.220Z,994.92
2016-06-15T01:08:10.260Z,994.88
2016-06-15T01:09:10.285Z,994.9
2016-06-15T01:10:10.308Z,994.92
2016-06-15T01:11:10.348Z,994.91
2016-06-15T01:12:10.371Z,994.92
2016-06-15T01:13:10.392Z,994.91
2016-06-15T01:14:10.427Z,994.94
2016-06-15T01:16:10.469Z,994.94
2016-06-15T01:17:10.504Z,994.95
2016-06-15T01:18:10.525Z,994.94
2016-06-15T01:19:10.543Z,994.98
2016-06-15T01:20:10.578Z,995
2016-06-15T01:21:10.598Z,994.96
2016-06-15T01:22:10.618Z,995
2016-06-15T01:23:10.652Z,994.98
2016-06-15T01:24:10.671Z,994.94
2016-06-15T01:25:10.689Z,994.94
2016-06-15T01:26:10.723Z,994.89
2016-06-15T01:27:10.743Z,994.9
2016-06-15T01:28:10.776Z,994.89
2016-06-15T01:29:10.796Z,994.86
2016-06-15T01:30:10.814Z,994.9
2016-06-15T01:32:10.866Z,994.83
2016-06-15T01:33:10.886Z,994.82
2016-06-15T01:34:10.904Z,994.79
2016-06-15T01:35:10.939Z,994.75
2016-06-15T01:36:10.957Z,994.77
2016-06-15T01:37:10.976Z,994.78
2016-06-15T01:38:11.010Z,994.76
2016-06-15T01:39:11.029Z,994.75
2016-06-15T01:40:11.048Z,994.76
2016-06-15T01:41:11.082Z,994.76
2016-06-15T01:42:11.101Z,994.73
2016-06-15T01:43:11.119Z,994.75
2016-06-15T01:44:11.154Z,994.75
2016-06-15T01:45:11.172Z,994.72
2016-06-15T01:46:11.191Z,994.72
2016-06-15T01:48:11.245Z,994.69
2016-06-15T01:49:11.279Z,994.71
2016-06-15T01:50:11.688Z,994.69
2016-06-15T01:51:11.316Z,994.71
2016-06-15T01:52:11.335Z,994.72
2016-06-15T01:53:11.369Z,994.73
2016-06-15T01:54:11.388Z,994.74
2016-06-15T01:55:11.406Z,994.71
2016-06-15T01:56:11.440Z,994.73
2016-06-15T01:57:11.459Z,994.74
2016-06-15T01:58:11.540Z,994.72
2016-06-15T01:59:11.513Z,994.72
2016-06-15T02:00:11.532Z,994.72
2016-06-15T02:01:11.550Z,994.7
2016-06-15T02:03:11.603Z,994.7
2016-06-15T02:04:11.622Z,994.73
2016-06-15T02:05:11.656Z,994.7
2016-06-15T02:06:11.675Z,994.72
2016-06-15T02:07:11.693Z,994.69
2016-06-15T02:08:11.727Z,994.68
2016-06-15T02:09:11.746Z,994.68
2016-06-15T02:10:11.765Z,994.66
2016-06-15T02:11:11.800Z,994.65
2016-06-15T02:12:11.819Z,994.62
2016-06-15T02:13:11.837Z,994.57
2016-06-15T02:14:11.871Z,994.61
2016-06-15T02:15:11.890Z,994.6
2016-06-15T02:16:11.909Z,994.59
2016-06-15T02:17:11.943Z,994.57
2016-06-15T02:18:11.962Z,994.59
2016-06-15T02:19:11.980Z,994.57
2016-06-15T02:20:12.014Z,994.58
2016-06-15T02:21:12.033Z,994.53
2016-06-15T02:22:12.053Z,994.57
2016-06-15T02:23:12.086Z,994.54
2016-06-15T02:24:12.106Z,994.53
2016-06-15T02:25:12.139Z,994.51
2016-06-15T02:26:12.157Z,994.5
2016-06-15T02:27:12.176Z,994.53
2016-06-15T02:28:12.196Z,994.54
2016-06-15T02:29:12.229Z,994.5
2016-06-15T02:30:12.249Z,994.51
2016-06-15T02:31:12.266Z,994.53
2016-06-15T02:32:12.301Z,994.53
2016-06-15T02:33:12.320Z,994.54
2016-06-15T02:35:12.373Z,994.61
2016-06-15T02:36:12.392Z,994.55
2016-06-15T02:37:12.410Z,994.58
2016-06-15T02:38:12.444Z,994.57
2016-06-15T02:39:12.463Z,994.55
2016-06-15T02:40:12.482Z,994.57
2016-06-15T02:41:12.517Z,994.55
2016-06-15T02:42:12.535Z,994.6
2016-06-15T02:43:12.554Z,994.59
2016-06-15T02:44:12.588Z,994.59
2016-06-15T02:45:12.607Z,994.59
2016-06-15T02:46:12.626Z,994.61
2016-06-15T02:47:12.660Z,994.62
2016-06-15T02:48:12.679Z,994.59
2016-06-15T02:49:12.697Z,994.61
2016-06-15T02:51:12.750Z,994.64
2016-06-15T02:52:12.770Z,994.65
2016-06-15T02:53:12.803Z,994.65
2016-06-15T02:54:12.823Z,994.65
2016-06-15T02:55:12.841Z,994.64
2016-06-15T02:56:12.860Z,994.67
2016-06-15T02:57:12.893Z,994.66
2016-06-15T02:58:12.913Z,994.69
2016-06-15T02:59:12.930Z,994.65
2016-06-15T03:00:12.966Z,994.64
2016-06-15T03:01:12.984Z,994.64
2016-06-15T03:02:13.019Z,994.62
2016-06-15T03:03:13.037Z,994.62
2016-06-15T03:04:13.056Z,994.65
2016-06-15T03:05:13.106Z,994.64
2016-06-15T03:07:13.128Z,994.65
2016-06-15T03:08:13.147Z,994.59
2016-06-15T03:09:13.181Z,994.63
2016-06-15T03:10:13.199Z,994.6
2016-06-15T03:11:13.218Z,994.6
2016-06-15T03:12:13.253Z,994.58
2016-06-15T03:13:13.271Z,994.62
2016-06-15T03:14:13.290Z,994.66
2016-06-15T03:15:13.324Z,994.63
2016-06-15T03:16:13.343Z,994.65
2016-06-15T03:17:13.362Z,994.67
2016-06-15T03:18:13.396Z,994.66
2016-06-15T03:19:13.414Z,994.63
2016-06-15T03:20:13.433Z,994.64
2016-06-15T03:21:13.920Z,994.65
2016-06-15T03:23:13.505Z,994.64
2016-06-15T03:24:13.539Z,994.65
2016-06-15T03:25:13.558Z,994.62
2016-06-15T03:26:13.577Z,994.63
2016-06-15T03:27:13.611Z,994.66
2016-06-15T03:28:13.630Z,994.62
2016-06-15T03:29:13.648Z,994.64
2016-06-15T03:30:13.683Z,994.66
2016-06-15T03:31:13.701Z,994.67
2016-06-15T03:32:13.720Z,994.67
2016-06-15T03:33:13.754Z,994.68
2016-06-15T03:34:13.774Z,994.71
2016-06-15T03:35:13.791Z,994.7
2016-06-15T03:36:13.827Z,994.73
2016-06-15T03:38:13.864Z,994.74
2016-06-15T03:39:13.898Z,994.76
2016-06-15T03:40:13.917Z,994.77
2016-06-15T03:41:13.935Z,994.82
2016-06-15T03:42:13.970Z,994.81
2016-06-15T03:43:14.004Z,994.76
2016-06-15T03:44:14.007Z,994.77
2016-06-15T03:45:14.042Z,994.79
2016-06-15T03:46:14.060Z,994.79
2016-06-15T03:47:14.079Z,994.79
2016-06-15T03:48:14.113Z,994.8
2016-06-15T03:49:14.132Z,994.78
2016-06-15T03:50:14.150Z,994.77
2016-06-15T03:51:14.185Z,994.78
2016-06-15T03:52:14.203Z,994.75
2016-06-15T03:53:14.222Z,994.75
2016-06-15T03:54:14.256Z,994.74
2016-06-15T03:55:14.275Z,994.76
2016-06-15T03:56:14.294Z,994.78
2016-06-15T03:57:14.328Z,994.74
2016-06-15T03:58:14.348Z,994.76
2016-06-15T03:59:14.365Z,994.78
2016-06-15T04:00:14.400Z,994.79
2016-06-15T04:01:14.419Z,994.82
2016-06-15T04:02:14.452Z,994.86
2016-06-15T04:03:14.472Z,994.83
2016-06-15T04:04:14.490Z,994.86
2016-06-15T04:05:14.525Z,994.84
2016-06-15T04:06:14.544Z,994.89
2016-06-15T04:07:14.562Z,994.87
2016-06-15T04:08:14.596Z,994.85
2016-06-15T04:10:14.634Z,994.88
2016-06-15T04:11:14.668Z,994.87
2016-06-15T04:12:14.687Z,994.88
2016-06-15T04:13:14.705Z,994.89
2016-06-15T04:14:14.739Z,994.86
2016-06-15T04:15:14.759Z,994.91
2016-06-15T04:16:14.792Z,994.93
2016-06-15T04:17:14.812Z,994.9
2016-06-15T04:18:14.831Z,994.95
2016-06-15T04:19:14.865Z,994.9
2016-06-15T04:20:14.883Z,994.91
2016-06-15T04:21:15.433Z,994.92
2016-06-15T04:22:14.936Z,994.93
2016-06-15T04:23:14.955Z,994.95
2016-06-15T04:24:14.990Z,995.01
2016-06-15T04:26:15.043Z,995.03
2016-06-15T04:27:15.061Z,995.1
2016-06-15T04:28:15.080Z,995.15
2016-06-15T04:29:15.115Z,995.07
2016-06-15T04:30:15.133Z,995.05
2016-06-15T04:31:15.167Z,995.02
2016-06-15T04:32:15.186Z,995.05
2016-06-15T04:33:15.220Z,995.01
2016-06-15T04:34:15.239Z,995
2016-06-15T04:35:15.258Z,995.03
2016-06-15T04:36:15.292Z,994.99
2016-06-15T04:37:15.310Z,994.99
2016-06-15T04:38:15.345Z,995
2016-06-15T04:39:15.363Z,995.02
2016-06-15T04:40:15.383Z,995.01
2016-06-15T04:42:15.435Z,995.04
2016-06-15T04:43:15.469Z,995.11
2016-06-15T04:44:15.488Z,995.02
2016-06-15T04:45:15.522Z,995.02
2016-06-15T04:46:15.542Z,995
2016-06-15T04:47:15.559Z,994.97
2016-06-15T04:48:15.594Z,994.98
2016-06-15T04:49:15.613Z,994.94
2016-06-15T04:50:15.647Z,994.98
2016-06-15T04:51:15.666Z,994.97
2016-06-15T04:52:15.700Z,994.94
2016-06-15T04:53:15.719Z,994.98
2016-06-15T04:54:15.753Z,994.99
2016-06-15T04:55:15.772Z,994.97
2016-06-15T04:56:15.790Z,994.97
2016-06-15T04:58:15.843Z,994.98
2016-06-15T04:59:15.878Z,994.96
2016-06-15T05:00:15.896Z,994.95
2016-06-15T05:01:15.916Z,994.97
2016-06-15T05:02:15.950Z,994.94
2016-06-15T05:03:15.969Z,994.93
2016-06-15T05:04:16.003Z,994.96
2016-06-15T05:05:16.021Z,994.99
2016-06-15T05:06:16.056Z,994.98
2016-06-15T05:07:16.074Z,994.96
2016-06-15T05:08:16.094Z,995
2016-06-15T05:09:16.127Z,994.98
2016-06-15T05:10:16.147Z,994.99
2016-06-15T05:11:16.180Z,994.97
2016-06-15T05:13:16.234Z,994.99
2016-06-15T05:14:16.253Z,995.02
2016-06-15T05:15:16.271Z,994.99
2016-06-15T05:16:16.305Z,995.02
2016-06-15T05:17:16.324Z,994.96
2016-06-15T05:18:16.358Z,994.99
2016-06-15T05:19:16.378Z,995.02
2016-06-15T05:20:16.411Z,994.95
2016-06-15T05:21:16.540Z,995
2016-06-15T05:22:16.448Z,994.99
2016-06-15T05:23:16.484Z,994.98
2016-06-15T05:24:16.517Z,995.02
2016-06-15T05:25:16.537Z,994.98
2016-06-15T05:26:16.570Z,995.02
2016-06-15T05:27:16.589Z,995.03
2016-06-15T05:28:16.608Z,995.05
2016-06-15T05:29:16.627Z,995.03
2016-06-15T05:30:16.677Z,995.1
2016-06-15T05:31:16.680Z,995.09
2016-06-15T05:32:16.714Z,995.1
2016-06-15T05:33:16.732Z,995.14
2016-06-15T05:34:16.767Z,995.14
2016-06-15T05:35:16.786Z,995.17
2016-06-15T05:36:16.820Z,995.16
2016-06-15T05:37:16.838Z,995.19
2016-06-15T05:38:16.857Z,995.15
2016-06-15T05:39:16.891Z,995.18
2016-06-15T05:40:16.910Z,995.18
2016-06-15T05:41:16.945Z,995.17
2016-06-15T05:42:16.964Z,995.16
2016-06-15T05:43:16.997Z,995.17
2016-06-15T05:45:17.035Z,995.15
2016-06-15T05:46:17.070Z,995.16
2016-06-15T05:47:17.104Z,995.16
2016-06-15T05:48:17.139Z,995.15
2016-06-15T05:49:17.156Z,995.17
2016-06-15T05:50:17.175Z,995.13
2016-06-15T05:51:17.506Z,995.12
2016-06-15T05:52:17.229Z,995.13
2016-06-15T05:53:17.247Z,995.13
2016-06-15T05:54:17.266Z,995.14
2016-06-15T05:55:17.299Z,995.16
2016-06-15T05:56:17.319Z,995.11
2016-06-15T05:57:17.353Z,995.13
2016-06-15T05:58:17.372Z,995.12
2016-06-15T05:59:17.406Z,995.12
2016-06-15T06:01:17.506Z,995.17
2016-06-15T06:02:17.479Z,995.19
2016-06-15T06:03:17.496Z,995.19
2016-06-15T06:04:17.532Z,995.2
2016-06-15T06:05:17.549Z,995.2
2016-06-15T06:06:17.583Z,995.21
2016-06-15T06:07:17.619Z,995.2
2016-06-15T06:08:17.622Z,995.24
2016-06-15T06:09:17.655Z,995.25
2016-06-15T06:10:17.675Z,995.27
2016-06-15T06:11:17.709Z,995.32
2016-06-15T06:12:17.727Z,995.3
2016-06-15T06:13:17.747Z,995.31
2016-06-15T06:14:17.780Z,995.3
2016-06-15T06:15:17.800Z,995.31
2016-06-15T06:17:17.853Z,995.3
2016-06-15T06:18:17.886Z,995.34
2016-06-15T06:19:17.906Z,995.33
2016-06-15T06:20:17.924Z,995.36
2016-06-15T06:21:17.959Z,995.38
2016-06-15T06:22:17.977Z,995.4
2016-06-15T06:23:18.011Z,995.39
2016-06-15T06:24:18.030Z,995.36
2016-06-15T06:25:18.064Z,995.39
2016-06-15T06:26:18.083Z,995.37
2016-06-15T06:27:18.102Z,995.41
2016-06-15T06:28:18.136Z,995.44
2016-06-15T06:29:18.155Z,995.43
2016-06-15T06:30:18.189Z,995.45
2016-06-15T06:31:18.208Z,995.48
2016-06-15T06:33:18.261Z,995.52
2016-06-15T06:34:18.280Z,995.5
2016-06-15T06:35:18.314Z,995.5
2016-06-15T06:36:18.333Z,995.49
2016-06-15T06:37:18.366Z,995.5
2016-06-15T06:38:18.386Z,995.48
2016-06-15T06:39:18.404Z,995.54
2016-06-15T06:40:18.438Z,995.49
2016-06-15T06:41:18.457Z,995.5
2016-06-15T06:42:18.491Z,995.5
2016-06-15T06:43:18.510Z,995.51
2016-06-15T06:44:18.529Z,995.52
2016-06-15T06:45:18.564Z,995.5
2016-06-15T06:46:18.581Z,995.5
2016-06-15T06:48:18.634Z,995.49
2016-06-15T06:49:18.670Z,995.47
2016-06-15T06:50:18.688Z,995.49
2016-06-15T06:51:18.707Z,995.47
2016-06-15T06:52:18.741Z,995.46
2016-06-15T06:53:18.760Z,995.45
2016-06-15T06:54:18.794Z,995.43
2016-06-15T06:55:18.814Z,995.47
2016-06-15T06:56:18.831Z,995.46
2016-06-15T06:57:18.866Z,995.47
2016-06-15T06:58:18.884Z,995.47
2016-06-15T06:59:18.919Z,995.48
2016-06-15T07:00:18.938Z,995.51
2016-06-15T07:01:18.972Z,995.51
2016-06-15T07:02:18.991Z,995.51
2016-06-15T07:03:19.009Z,995.54
2016-06-15T07:04:19.044Z,995.54
2016-06-15T07:05:19.062Z,995.56
2016-06-15T07:06:19.097Z,995.57
2016-06-15T07:07:19.115Z,995.57
2016-06-15T07:08:19.134Z,995.54
2016-06-15T07:09:19.168Z,995.57
2016-06-15T07:10:19.187Z,995.58
2016-06-15T07:11:19.222Z,995.58
2016-06-15T07:12:22.271Z,995.59
2016-06-15T07:13:19.275Z,995.57
2016-06-15T07:14:19.292Z,995.57
2016-06-15T07:15:19.328Z,995.59
2016-06-15T07:16:19.346Z,995.64
2016-06-15T07:17:19.381Z,995.65
2016-06-15T07:18:19.399Z,995.65
2016-06-15T07:20:19.452Z,995.64
2016-06-15T07:21:19.472Z,995.68
2016-06-15T07:22:19.505Z,995.71
2016-06-15T07:23:19.524Z,995.7
2016-06-15T07:24:19.542Z,995.64
2016-06-15T07:25:19.577Z,995.67
2016-06-15T07:26:19.595Z,995.68
2016-06-15T07:27:19.615Z,995.65
2016-06-15T07:28:19.649Z,995.66
2016-06-15T07:29:19.668Z,995.67
2016-06-15T07:30:19.702Z,995.7
2016-06-15T07:31:19.720Z,995.69
2016-06-15T07:32:19.755Z,995.7
2016-06-15T07:33:19.773Z,995.69
2016-06-15T07:34:19.792Z,995.69
2016-06-15T07:36:19.860Z,995.7
2016-06-15T07:37:20.426Z,995.71
2016-06-15T07:38:19.898Z,995.71
2016-06-15T07:39:20.041Z,995.7
2016-06-15T07:40:19.952Z,995.69
2016-06-15T07:41:19.970Z,995.7
2016-06-15T07:42:20.003Z,995.73
2016-06-15T07:43:20.023Z,995.69
2016-06-15T07:44:20.057Z,995.7
2016-06-15T07:45:20.076Z,995.7
2016-06-15T07:46:20.110Z,995.69
2016-06-15T07:47:20.129Z,995.72
2016-06-15T07:48:20.147Z,995.7
2016-06-15T07:49:20.182Z,995.73
2016-06-15T07:50:20.200Z,995.75
2016-06-15T07:52:20.660Z,995.74
2016-06-15T07:53:20.287Z,995.72
2016-06-15T07:54:20.306Z,995.72
2016-06-15T07:55:20.326Z,995.71
2016-06-15T07:56:20.360Z,995.72
2016-06-15T07:57:20.379Z,995.71
2016-06-15T07:58:20.412Z,995.7
2016-06-15T07:59:20.431Z,995.7
2016-06-15T08:00:20.466Z,995.68
2016-06-15T08:01:20.484Z,995.69
2016-06-15T08:02:20.503Z,995.68
2016-06-15T08:03:20.537Z,995.68
2016-06-15T08:04:20.556Z,995.67
2016-06-15T08:05:20.590Z,995.65
2016-06-15T08:06:20.610Z,995.67
2016-06-15T08:08:20.663Z,995.67
2016-06-15T08:09:20.681Z,995.66
2016-06-15T08:10:20.714Z,995.67
2016-06-15T08:11:20.734Z,995.69
2016-06-15T08:12:20.752Z,995.64
2016-06-15T08:13:20.787Z,995.66
2016-06-15T08:14:20.806Z,995.66
2016-06-15T08:15:20.840Z,995.68
2016-06-15T08:16:20.891Z,995.66
2016-06-15T08:17:20.893Z,995.67
2016-06-15T08:18:20.943Z,995.69
2016-06-15T08:19:20.930Z,995.71
2016-06-15T08:20:20.964Z,995.72
2016-06-15T08:21:20.984Z,995.74
2016-06-15T08:23:21.802Z,995.79
2016-06-15T08:24:21.055Z,995.81
2016-06-15T08:25:21.090Z,995.8
2016-06-15T08:26:21.108Z,995.82
2016-06-15T08:27:21.142Z,995.82
2016-06-15T08:28:21.161Z,995.83
2016-06-15T08:29:21.195Z,995.83
2016-06-15T08:30:21.214Z,995.85
2016-06-15T08:31:21.233Z,995.86
2016-06-15T08:32:21.268Z,995.85
2016-06-15T08:33:21.285Z,995.86
2016-06-15T08:34:21.321Z,995.85
2016-06-15T08:35:21.339Z,995.87
2016-06-15T08:36:21.374Z,995.86
2016-06-15T08:37:21.486Z,995.85
2016-06-15T08:38:21.410Z,995.89
2016-06-15T08:39:21.445Z,995.9
2016-06-15T08:40:21.464Z,995.92
2016-06-15T08:41:21.498Z,995.93
2016-06-15T08:42:21.517Z,995.93
2016-06-15T08:43:21.551Z,995.92
2016-06-15T08:44:21.569Z,995.92
2016-06-15T08:45:21.589Z,995.91
2016-06-15T08:46:21.622Z,995.95
2016-06-15T08:47:21.642Z,995.91
2016-06-15T08:48:21.675Z,995.92
2016-06-15T08:49:21.694Z,995.95
2016-06-15T08:50:21.713Z,995.99
2016-06-15T08:51:22.903Z,995.95
2016-06-15T08:52:21.766Z,995.98
2016-06-15T08:53:21.800Z,995.99
2016-06-15T08:55:21.853Z,995.99
2016-06-15T08:56:21.872Z,995.99
2016-06-15T08:57:21.891Z,995.99
2016-06-15T08:58:21.925Z,996.03
2016-06-15T08:59:21.944Z,996.01
2016-06-15T09:00:22.165Z,996.01
2016-06-15T09:01:25.029Z,996.04
2016-06-15T09:02:22.013Z,996.06
2016-06-15T09:03:22.047Z,996.06
2016-06-15T09:04:22.066Z,996.04
2016-06-15T09:05:22.100Z,996.06
2016-06-15T09:06:22.119Z,996.08
2016-06-15T09:07:22.153Z,996.1
2016-06-15T09:08:22.172Z,996.09
2016-06-15T09:09:22.191Z,996.08
2016-06-15T09:11:22.243Z,996.1
2016-06-15T09:12:22.278Z,996.13
2016-06-15T09:13:22.305Z,996.12
2016-06-15T09:14:22.309Z,996.12
2016-06-15T09:15:22.342Z,996.14
2016-06-15T09:16:22.377Z,996.13
2016-06-15T09:17:22.412Z,996.14
2016-06-15T09:18:22.431Z,996.15
2016-06-15T09:19:22.449Z,996.14
2016-06-15T09:20:22.467Z,996.14
2016-06-15T09:21:22.503Z,996.14
2016-06-15T09:22:22.520Z,996.15
2016-06-15T09:23:22.556Z,996.16
2016-06-15T09:24:22.573Z,996.15
2016-06-15T09:25:22.593Z,996.17
2016-06-15T09:27:22.646Z,996.16
2016-06-15T09:28:22.680Z,996.14
2016-06-15T09:29:22.708Z,996.2
2016-06-15T09:30:22.727Z,996.22
2016-06-15T09:31:22.746Z,996.21
2016-06-15T09:32:22.781Z,996.21
2016-06-15T09:33:22.800Z,996.2
2016-06-15T09:34:22.833Z,996.22
2016-06-15T09:35:22.852Z,996.2
2016-06-15T09:36:22.871Z,996.25
2016-06-15T09:37:23.045Z,996.26
2016-06-15T09:38:22.923Z,996.27
2016-06-15T09:39:22.957Z,996.28
2016-06-15T09:40:22.977Z,996.26
2016-06-15T09:41:22.995Z,996.3
2016-06-15T09:43:23.048Z,996.28
2016-06-15T09:44:23.083Z,996.29
2016-06-15T09:45:23.102Z,996.3
2016-06-15T09:46:23.120Z,996.31
2016-06-15T09:47:23.154Z,996.32
2016-06-15T09:48:23.173Z,996.33
2016-06-15T09:49:23.208Z,996.31
2016-06-15T09:50:23.241Z,996.29
2016-06-15T09:51:23.261Z,996.33
2016-06-15T09:52:23.279Z,996.32
2016-06-15T09:53:23.298Z,996.32
2016-06-15T09:54:23.331Z,996.29
2016-06-15T09:55:23.351Z,996.38
2016-06-15T09:56:23.385Z,996.34
2016-06-15T09:58:23.422Z,996.36
2016-06-15T09:59:23.458Z,996.36
2016-06-15T10:00:23.475Z,996.37
2016-06-15T10:01:23.510Z,996.33
2016-06-15T10:02:23.528Z,996.34
2016-06-15T10:03:23.562Z,996.32
2016-06-15T10:04:23.600Z,996.3
2016-06-15T10:05:23.659Z,996.33
2016-06-15T10:06:23.733Z,996.32
2016-06-15T10:07:24.105Z,996.31
2016-06-15T10:08:23.850Z,996.3
2016-06-15T10:09:23.912Z,996.28
2016-06-15T10:10:23.946Z,996.32
2016-06-15T10:11:24.509Z,996.31
2016-06-15T10:12:24.027Z,996.32
2016-06-15T10:13:24.061Z,996.29
2016-06-15T10:14:24.105Z,996.3
2016-06-15T10:15:24.128Z,996.3
2016-06-15T10:16:25.933Z,996.29
2016-06-15T10:17:24.192Z,996.28
2016-06-15T10:18:24.247Z,996.29
2016-06-15T10:19:24.254Z,996.29
2016-06-15T10:20:24.275Z,996.28
2016-06-15T10:21:24.311Z,996.31
2016-06-15T10:22:24.332Z,996.31
2016-06-15T10:23:24.352Z,996.31
2016-06-15T10:24:24.388Z,996.31
2016-06-15T10:25:24.407Z,996.31
2016-06-15T10:26:24.442Z,996.32
2016-06-15T10:27:24.460Z,996.34
2016-06-15T10:28:24.480Z,996.3
2016-06-15T10:30:24.534Z,996.28
2016-06-15T10:31:24.568Z,996.26
2016-06-15T10:32:24.587Z,996.28
2016-06-15T10:33:24.606Z,996.22
2016-06-15T10:34:24.641Z,996.29
2016-06-15T10:35:25.254Z,996.26
2016-06-15T10:36:26.288Z,996.27
2016-06-15T10:37:30.495Z,996.28
2016-06-15T10:38:37.060Z,996.29
2016-06-15T10:39:33.672Z,996.28
2016-06-15T10:40:44.754Z,996.32
2016-06-15T10:41:45.726Z,996.27
2016-06-15T10:42:40.635Z,996.31
2016-06-15T10:43:38.216Z,996.3
2016-06-15T10:44:38.250Z,996.27
2016-06-15T10:45:38.691Z,996.29
2016-06-15T10:46:54.617Z,996.29
2016-06-15T10:47:51.572Z,996.22
2016-06-15T10:48:45.606Z,996.23
2016-06-15T10:49:50.595Z,996.25
2016-06-15T10:51:53.647Z,996.26
2016-06-15T10:53:17.622Z,996.28
2016-06-15T10:54:37.688Z,996.27
2016-06-15T10:55:47.472Z,996.26
2016-06-15T10:56:23.741Z,996.23
2016-06-15T10:57:23.775Z,996.24
2016-06-15T10:58:23.793Z,996.28
2016-06-15T10:59:23.829Z,996.27
2016-06-15T11:01:23.866Z,996.34
2016-06-15T11:02:23.900Z,996.32
2016-06-15T11:03:23.919Z,996.33
2016-06-15T11:04:23.953Z,996.33
2016-06-15T11:05:23.972Z,996.36
2016-06-15T11:06:24.007Z,996.37
2016-06-15T11:07:24.196Z,996.37
2016-06-15T11:08:24.059Z,996.36
2016-06-15T11:09:24.078Z,996.36
2016-06-15T11:10:24.096Z,996.34
2016-06-15T11:11:24.131Z,996.38
2016-06-15T11:12:24.166Z,996.35
2016-06-15T11:13:24.184Z,996.35
2016-06-15T11:14:24.202Z,996.35
2016-06-15T11:15:24.237Z,996.34
2016-06-15T11:17:24.290Z,996.33
2016-06-15T11:18:24.310Z,996.32
2016-06-15T11:19:24.343Z,996.32
2016-06-15T11:20:24.362Z,996.31
2016-06-15T11:21:24.397Z,996.31
2016-06-15T11:22:24.414Z,996.29
2016-06-15T11:23:24.449Z,996.26
2016-06-15T11:24:24.468Z,996.23
2016-06-15T11:25:24.486Z,996.23
2016-06-15T11:26:24.521Z,996.28
2016-06-15T11:27:24.555Z,996.22
2016-06-15T11:28:24.573Z,996.26
2016-06-15T11:29:24.593Z,996.24
2016-06-15T11:30:24.627Z,996.24
2016-06-15T11:31:24.645Z,996.23
2016-06-15T11:33:24.698Z,996.23
2016-06-15T11:34:24.733Z,996.23
2016-06-15T11:35:24.752Z,996.2
2016-06-15T11:36:24.786Z,996.19
2016-06-15T11:37:24.804Z,996.19
2016-06-15T11:38:24.838Z,996.17
2016-06-15T11:39:24.857Z,996.14
2016-06-15T11:40:24.891Z,996.15
2016-06-15T11:41:24.911Z,996.17
2016-06-15T11:42:24.929Z,996.16
2016-06-15T11:43:24.964Z,996.15
2016-06-15T11:44:24.982Z,996.12
2016-06-15T11:45:25.017Z,996.15
2016-06-15T11:46:25.052Z,996.16
2016-06-15T11:48:25.088Z,996.17
2016-06-15T11:49:25.123Z,996.16
2016-06-15T11:50:25.141Z,996.16
2016-06-15T11:51:25.176Z,996.19
2016-06-15T11:52:25.460Z,996.18
2016-06-15T11:53:25.229Z,996.17
2016-06-15T11:54:25.248Z,996.16
2016-06-15T11:55:25.281Z,996.19
2016-06-15T11:56:25.301Z,996.18
2016-06-15T11:57:25.335Z,996.15
2016-06-15T11:58:25.353Z,996.14
2016-06-15T11:59:25.373Z,996.14
2016-06-15T12:00:25.406Z,996.14
2016-06-15T12:01:25.426Z,996.13
2016-06-15T12:02:25.460Z,996.16
2016-06-15T12:03:25.479Z,996.18
2016-06-15T12:04:25.513Z,996.15
2016-06-15T12:05:25.531Z,996.15
2016-06-15T12:06:25.566Z,996.17
2016-06-15T12:07:25.599Z,996.16
2016-06-15T12:08:25.619Z,996.19
2016-06-15T12:09:25.653Z,996.15
2016-06-15T12:10:25.672Z,996.18
2016-06-15T12:11:25.690Z,996.2
2016-06-15T12:12:25.725Z,996.18
2016-06-15T12:13:25.743Z,996.2
2016-06-15T12:14:25.778Z,996.18
2016-06-15T12:15:25.797Z,996.19
2016-06-15T12:16:25.815Z,996.2
2016-06-15T12:17:25.849Z,996.18
2016-06-15T12:18:25.869Z,996.2
2016-06-15T12:20:25.921Z,996.2
2016-06-15T12:21:25.956Z,996.16
2016-06-15T12:22:25.973Z,996.19
2016-06-15T12:23:26.009Z,996.14
2016-06-15T12:24:26.027Z,996.16
2016-06-15T12:25:26.061Z,996.15
2016-06-15T12:26:26.080Z,996.16
2016-06-15T12:27:26.114Z,996.14
2016-06-15T12:28:26.133Z,996.15
2016-06-15T12:29:26.153Z,996.18
2016-06-15T12:30:26.187Z,996.18
2016-06-15T12:31:26.205Z,996.19
2016-06-15T12:32:26.239Z,996.19
2016-06-15T12:33:26.257Z,996.21
2016-06-15T12:34:26.293Z,996.22
2016-06-15T12:36:26.344Z,996.23
2016-06-15T12:37:26.364Z,996.24
2016-06-15T12:38:26.398Z,996.28
2016-06-15T12:39:26.417Z,996.26
2016-06-15T12:40:26.452Z,996.29
2016-06-15T12:41:26.470Z,996.29
2016-06-15T12:42:26.488Z,996.29
2016-06-15T12:43:26.523Z,996.32
2016-06-15T12:44:26.542Z,996.31
2016-06-15T12:45:26.577Z,996.33
2016-06-15T12:46:26.595Z,996.28
2016-06-15T12:47:26.629Z,996.27
2016-06-15T12:48:26.647Z,996.25
2016-06-15T12:49:26.682Z,996.25
2016-06-15T12:50:26.701Z,996.25
2016-06-15T12:52:26.754Z,996.26
2016-06-15T12:53:26.788Z,996.27
2016-06-15T12:54:26.808Z,996.24
2016-06-15T12:55:26.841Z,996.24
2016-06-15T12:56:26.860Z,996.23
2016-06-15T12:57:26.894Z,996.23
2016-06-15T12:58:26.913Z,996.28
2016-06-15T12:59:26.948Z,996.29
2016-06-15T13:00:26.966Z,996.3
2016-06-15T13:01:27.001Z,996.32
2016-06-15T13:02:27.019Z,996.32
2016-06-15T13:03:27.038Z,996.27
2016-06-15T13:04:27.072Z,996.32
2016-06-15T13:05:27.091Z,996.3
2016-06-15T13:06:27.125Z,996.29
2016-06-15T13:08:27.178Z,996.36
2016-06-15T13:09:27.197Z,996.36
2016-06-15T13:10:27.231Z,996.35
2016-06-15T13:11:27.249Z,996.38
2016-06-15T13:12:27.285Z,996.41
2016-06-15T13:13:27.302Z,996.41
2016-06-15T13:14:27.337Z,996.4